createdAt,value
2023-04-01T00:00:19.034Z,33.67
2023-04-01T00:01:08.871Z,33.75
2023-04-01T00:02:08.933Z,33.78
2023-04-01T00:03:08.909Z,33.83
2023-04-01T00:04:08.878Z,33.88
2023-04-01T00:05:08.822Z,33.83
2023-04-01T00:06:08.788Z,33.64
2023-04-01T00:07:08.841Z,33.80
2023-04-01T00:08:08.788Z,33.78
2023-04-01T00:09:08.761Z,33.67
2023-04-01T00:10:08.775Z,33.97
2023-04-01T00:11:08.749Z,33.61
2023-04-01T00:12:08.739Z,34.02
2023-04-01T00:13:08.800Z,33.69
2023-04-01T00:14:08.704Z,33.53
2023-04-01T00:15:08.673Z,33.78
2023-04-01T00:16:19.968Z,33.86
2023-04-01T00:17:08.746Z,33.91
2023-04-01T00:18:08.681Z,33.69
2023-04-01T00:19:08.644Z,33.72
2023-04-01T00:20:08.616Z,33.86
2023-04-01T00:21:08.636Z,33.80
2023-04-01T00:22:08.610Z,33.83
2023-04-01T00:23:08.597Z,33.67
2023-04-01T00:24:08.563Z,33.83
2023-04-01T00:25:08.555Z,33.83
2023-04-01T00:26:08.533Z,33.61
2023-04-01T00:27:08.538Z,33.56
2023-04-01T00:28:08.533Z,33.59
2023-04-01T00:29:08.572Z,33.80
2023-04-01T00:30:08.492Z,33.53
2023-04-01T00:31:08.567Z,33.80
2023-04-01T00:32:08.466Z,33.75
2023-04-01T00:33:08.491Z,33.64
2023-04-01T00:34:08.456Z,33.51
2023-04-01T00:35:08.427Z,33.61
2023-04-01T00:36:08.487Z,33.69
2023-04-01T00:37:08.395Z,33.61
2023-04-01T00:38:08.441Z,33.59
2023-04-01T00:39:08.397Z,33.64
2023-04-01T00:40:08.385Z,33.51
2023-04-01T00:41:08.378Z,33.75
2023-04-01T00:42:08.346Z,33.56
2023-04-01T00:43:08.334Z,33.61
2023-04-01T00:44:08.350Z,33.64
2023-04-01T00:45:08.352Z,33.64
2023-04-01T00:46:08.283Z,33.67
2023-04-01T00:47:08.356Z,33.59
2023-04-01T00:48:08.307Z,33.43
2023-04-01T00:49:08.236Z,33.37
2023-04-01T00:50:08.273Z,33.51
2023-04-01T00:51:08.232Z,33.48
2023-04-01T00:52:08.206Z,33.24
2023-04-01T00:53:08.201Z,33.35
2023-04-01T00:54:08.189Z,33.27
2023-04-01T00:55:08.181Z,33.37
2023-04-01T00:56:08.180Z,33.37
2023-04-01T00:57:08.210Z,33.21
2023-04-01T00:58:08.124Z,33.37
2023-04-01T00:59:08.140Z,33.19
2023-04-01T01:00:08.108Z,33.13
2023-04-01T01:01:08.150Z,33.08
2023-04-01T01:02:08.103Z,33.01
2023-04-01T01:03:08.141Z,33.19
2023-04-01T01:04:08.057Z,32.90
2023-04-01T01:05:08.023Z,33.03
2023-04-01T01:06:08.054Z,32.88
2023-04-01T01:07:08.022Z,32.90
2023-04-01T01:08:08.047Z,32.93
2023-04-01T01:09:07.996Z,32.95
2023-04-01T01:10:07.955Z,32.88
2023-04-01T01:11:07.966Z,32.75
2023-04-01T01:12:07.916Z,32.70
2023-04-01T01:13:07.931Z,32.88
2023-04-01T01:14:07.876Z,32.98
2023-04-01T01:15:07.912Z,33.06
2023-04-01T01:16:07.917Z,32.93
2023-04-01T01:17:07.853Z,33.03
2023-04-01T01:18:07.892Z,32.95
2023-04-01T01:19:07.861Z,33.01
2023-04-01T01:20:12.782Z,33.01
2023-04-01T01:21:07.850Z,33.03
2023-04-01T01:22:07.784Z,33.24
2023-04-01T01:23:07.803Z,33.08
2023-04-01T01:24:07.772Z,33.03
2023-04-01T01:25:07.776Z,33.11
2023-04-01T01:26:07.724Z,32.93
2023-04-01T01:27:07.770Z,32.82
2023-04-01T01:28:07.704Z,32.85
2023-04-01T01:29:07.744Z,33.03
2023-04-01T01:30:07.678Z,33.06
2023-04-01T01:31:07.681Z,33.01
2023-04-01T01:32:07.633Z,32.90
2023-04-01T01:33:07.928Z,32.95
2023-04-01T01:34:07.638Z,32.90
2023-04-01T01:35:07.622Z,32.65
2023-04-01T01:36:07.700Z,32.57
2023-04-01T01:37:07.608Z,32.70
2023-04-01T01:38:07.604Z,32.47
2023-04-01T01:39:07.627Z,32.59
2023-04-01T01:40:07.554Z,32.44
2023-04-01T01:41:07.533Z,32.54
2023-04-01T01:42:07.538Z,32.37
2023-04-01T01:43:07.504Z,32.37
2023-04-01T01:44:07.502Z,32.24
2023-04-01T01:45:07.470Z,32.44
2023-04-01T01:46:07.532Z,32.22
2023-04-01T01:47:07.457Z,32.17
2023-04-01T01:48:07.481Z,32.05
2023-04-01T01:49:07.467Z,32.12
2023-04-01T01:50:07.424Z,32.32
2023-04-01T01:51:07.397Z,32.14
2023-04-01T01:52:07.417Z,32.24
2023-04-01T01:53:07.398Z,32.19
2023-04-01T01:54:07.369Z,32.39
2023-04-01T01:55:07.379Z,32.37
2023-04-01T01:56:07.349Z,32.24
2023-04-01T01:57:07.350Z,32.44
2023-04-01T01:58:07.346Z,32.39
2023-04-01T01:59:07.278Z,32.39
2023-04-01T02:00:07.306Z,32.37
2023-04-01T02:01:07.336Z,32.32
2023-04-01T02:02:07.261Z,32.22
2023-04-01T02:03:07.326Z,32.24
2023-04-01T02:04:07.293Z,32.17
2023-04-01T02:05:07.215Z,32.00
2023-04-01T02:06:07.202Z,32.12
2023-04-01T02:07:07.233Z,32.17
2023-04-01T02:08:07.163Z,31.97
2023-04-01T02:09:07.175Z,32.10
2023-04-01T02:10:07.166Z,31.97
2023-04-01T02:11:07.169Z,32.00
2023-04-01T02:12:07.136Z,32.12
2023-04-01T02:13:07.129Z,32.07
2023-04-01T02:14:07.111Z,31.68
2023-04-01T02:15:07.070Z,31.95
2023-04-01T02:16:07.112Z,31.78
2023-04-01T02:17:07.104Z,31.92
2023-04-01T02:18:07.062Z,32.24
2023-04-01T02:19:07.041Z,32.10
2023-04-01T02:20:06.991Z,32.14
2023-04-01T02:21:07.034Z,32.19
2023-04-01T02:22:06.976Z,32.32
2023-04-01T02:23:06.982Z,32.07
2023-04-01T02:24:06.955Z,32.37
2023-04-01T02:25:06.941Z,32.22
2023-04-01T02:26:06.942Z,32.00
2023-04-01T02:27:06.940Z,32.17
2023-04-01T02:28:06.902Z,32.17
2023-04-01T02:29:06.944Z,32.07
2023-04-01T02:30:06.883Z,31.88
2023-04-01T02:31:07.021Z,31.73
2023-04-01T02:32:06.863Z,31.90
2023-04-01T02:33:06.987Z,31.59
2023-04-01T02:34:06.829Z,31.71
2023-04-01T02:35:06.831Z,31.90
2023-04-01T02:36:06.839Z,31.71
2023-04-01T02:37:06.764Z,31.85
2023-04-01T02:38:06.808Z,31.88
2023-04-01T02:39:06.760Z,31.68
2023-04-01T02:40:06.740Z,31.90
2023-04-01T02:41:06.729Z,31.80
2023-04-01T02:42:06.711Z,31.78
2023-04-01T02:43:06.726Z,31.78
2023-04-01T02:44:06.685Z,31.73
2023-04-01T02:45:06.717Z,31.75
2023-04-01T02:46:06.640Z,31.71
2023-04-01T02:47:06.716Z,31.56
2023-04-01T02:48:06.679Z,31.44
2023-04-01T02:49:06.643Z,31.68
2023-04-01T02:50:06.619Z,31.49
2023-04-01T02:51:06.609Z,31.40
2023-04-01T02:52:06.576Z,31.40
2023-04-01T02:53:06.584Z,31.54
2023-04-01T02:54:06.563Z,31.44
2023-04-01T02:55:06.543Z,31.49
2023-04-01T02:56:06.528Z,31.54
2023-04-01T02:57:06.601Z,31.35
2023-04-01T02:58:06.507Z,31.59
2023-04-01T02:59:06.507Z,31.56
2023-04-01T03:00:06.558Z,31.68
2023-04-01T03:01:06.491Z,31.42
2023-04-01T03:02:06.509Z,31.47
2023-04-01T03:03:06.541Z,31.26
2023-04-01T03:04:06.462Z,31.35
2023-04-01T03:05:06.424Z,31.37
2023-04-01T03:06:06.439Z,31.23
2023-04-01T03:07:06.399Z,31.03
2023-04-01T03:08:06.377Z,31.03
2023-04-01T03:09:06.357Z,31.16
2023-04-01T03:10:06.364Z,30.96
2023-04-01T03:11:06.314Z,30.91
2023-04-01T03:12:06.324Z,31.05
2023-04-01T03:13:06.288Z,30.96
2023-04-01T03:14:06.324Z,31.12
2023-04-01T03:15:10.499Z,30.87
2023-04-01T03:16:06.291Z,31.03
2023-04-01T03:17:06.252Z,31.12
2023-04-01T03:18:06.285Z,30.91
2023-04-01T03:19:06.228Z,30.89
2023-04-01T03:20:06.248Z,31.09
2023-04-01T03:21:06.215Z,30.98
2023-04-01T03:22:06.181Z,30.75
2023-04-01T03:23:06.172Z,30.82
2023-04-01T03:24:06.160Z,30.91
2023-04-01T03:25:06.146Z,30.82
2023-04-01T03:26:06.131Z,30.96
2023-04-01T03:27:06.129Z,31.00
2023-04-01T03:28:06.113Z,30.80
2023-04-01T03:29:06.070Z,30.96
2023-04-01T03:30:06.225Z,30.87
2023-04-01T03:31:06.085Z,30.89
2023-04-01T03:32:06.045Z,30.96
2023-04-01T03:33:06.107Z,30.87
2023-04-01T03:34:06.058Z,31.16
2023-04-01T03:35:06.000Z,30.82
2023-04-01T03:36:06.012Z,31.07
2023-04-01T03:37:05.968Z,30.82
2023-04-01T03:38:06.014Z,31.07
2023-04-01T03:39:06.012Z,31.00
2023-04-01T03:40:05.930Z,30.89
2023-04-01T03:41:05.930Z,31.00
2023-04-01T03:42:05.917Z,31.14
2023-04-01T03:43:05.960Z,30.91
2023-04-01T03:44:05.889Z,30.87
2023-04-01T03:45:05.858Z,31.03
2023-04-01T03:46:05.895Z,31.00
2023-04-01T03:47:05.848Z,30.98
2023-04-01T03:48:05.853Z,30.98
2023-04-01T03:49:05.809Z,30.73
2023-04-01T03:50:05.800Z,30.42
2023-04-01T03:51:05.791Z,30.44
2023-04-01T03:52:05.809Z,30.26
2023-04-01T03:53:05.815Z,30.29
2023-04-01T03:54:05.776Z,30.42
2023-04-01T03:55:05.779Z,30.22
2023-04-01T03:56:05.796Z,30.13
2023-04-01T03:57:05.893Z,29.98
2023-04-01T03:58:05.773Z,30.22
2023-04-01T03:59:05.714Z,30.24
2023-04-01T04:00:05.702Z,30.03
2023-04-01T04:01:05.719Z,30.18
2023-04-01T04:02:05.662Z,30.20
2023-04-01T04:03:05.773Z,30.13
2023-04-01T04:04:05.657Z,30.20
2023-04-01T04:05:05.608Z,30.03
2023-04-01T04:06:05.615Z,30.05
2023-04-01T04:07:05.629Z,30.05
2023-04-01T04:08:05.587Z,30.11
2023-04-01T04:09:05.643Z,29.88
2023-04-01T04:10:05.573Z,29.88
2023-04-01T04:11:05.575Z,29.69
2023-04-01T04:12:05.519Z,29.54
2023-04-01T04:13:05.544Z,29.60
2023-04-01T04:14:05.569Z,29.39
2023-04-01T04:15:05.561Z,29.37
2023-04-01T04:16:05.455Z,29.60
2023-04-01T04:17:05.471Z,29.56
2023-04-01T04:18:05.479Z,29.50
2023-04-01T04:19:05.418Z,29.35
2023-04-01T04:20:05.540Z,29.42
2023-04-01T04:21:05.396Z,29.52
2023-04-01T04:22:05.386Z,29.58
2023-04-01T04:23:05.354Z,29.54
2023-04-01T04:24:05.388Z,29.48
2023-04-01T04:25:05.330Z,29.29
2023-04-01T04:26:05.361Z,29.27
2023-04-01T04:27:05.393Z,29.21
2023-04-01T04:28:05.372Z,29.44
2023-04-01T04:29:05.486Z,29.33
2023-04-01T04:30:05.358Z,28.99
2023-04-01T04:31:05.409Z,29.15
2023-04-01T04:32:05.395Z,28.91
2023-04-01T04:33:05.497Z,28.89
2023-04-01T04:34:05.373Z,28.89
2023-04-01T04:35:05.371Z,29.05
2023-04-01T04:36:05.491Z,28.75
2023-04-01T04:37:05.421Z,28.85
2023-04-01T04:38:05.257Z,28.77
2023-04-01T04:39:06.191Z,28.97
2023-04-01T04:40:05.233Z,29.01
2023-04-01T04:41:05.136Z,28.75
2023-04-01T04:42:05.142Z,28.85
2023-04-01T04:43:11.741Z,28.83
2023-04-01T04:44:05.106Z,28.81
2023-04-01T04:45:05.129Z,28.83
2023-04-01T04:46:05.090Z,28.73
2023-04-01T04:47:05.087Z,28.67
2023-04-01T04:48:05.046Z,28.75
2023-04-01T04:49:05.050Z,28.44
2023-04-01T04:50:05.037Z,28.34
2023-04-01T04:51:05.222Z,28.19
2023-04-01T04:52:05.130Z,28.19
2023-04-01T04:53:05.105Z,28.21
2023-04-01T04:54:05.017Z,28.13
2023-04-01T04:55:04.964Z,27.89
2023-04-01T04:56:05.024Z,27.76
2023-04-01T04:57:04.956Z,27.78
2023-04-01T04:58:04.894Z,27.89
2023-04-01T04:59:04.916Z,27.81
2023-04-01T05:00:04.915Z,27.65
2023-04-01T05:01:04.885Z,27.56
2023-04-01T05:02:04.898Z,27.81
2023-04-01T05:03:04.962Z,27.81
2023-04-01T05:04:04.837Z,27.70
2023-04-01T05:05:04.789Z,27.78
2023-04-01T05:06:04.795Z,27.94
2023-04-01T05:07:04.935Z,27.85
2023-04-01T05:08:04.864Z,27.89
2023-04-01T05:09:04.875Z,28.06
2023-04-01T05:10:04.728Z,28.23
2023-04-01T05:11:04.956Z,28.17
2023-04-01T05:12:04.826Z,28.02
2023-04-01T05:13:06.790Z,28.23
2023-04-01T05:14:04.700Z,28.23
2023-04-01T05:15:04.686Z,28.28
2023-04-01T05:16:04.656Z,28.28
2023-04-01T05:17:04.741Z,28.40
2023-04-01T05:18:04.682Z,28.34
2023-04-01T05:19:10.602Z,28.36
2023-04-01T05:20:04.593Z,28.23
2023-04-01T05:21:04.574Z,28.42
2023-04-01T05:22:04.573Z,28.44
2023-04-01T05:23:04.574Z,28.34
2023-04-01T05:24:04.569Z,28.21
2023-04-01T05:25:04.554Z,28.26
2023-04-01T05:26:04.529Z,28.34
2023-04-01T05:27:05.216Z,28.34
2023-04-01T05:28:04.503Z,28.32
2023-04-01T05:29:04.521Z,28.46
2023-04-01T05:30:04.580Z,28.53
2023-04-01T05:31:04.499Z,28.44
2023-04-01T05:32:04.519Z,28.55
2023-04-01T05:33:04.565Z,28.44
2023-04-01T05:34:04.479Z,28.67
2023-04-01T05:35:04.413Z,28.69
2023-04-01T05:36:04.487Z,28.73
2023-04-01T05:37:04.401Z,28.75
2023-04-01T05:38:04.383Z,28.85
2023-04-01T05:39:04.391Z,28.87
2023-04-01T05:40:04.369Z,28.99
2023-04-01T05:41:04.330Z,28.93
2023-04-01T05:42:05.605Z,29.11
2023-04-01T05:43:04.303Z,29.19
2023-04-01T05:44:04.309Z,29.23
2023-04-01T05:45:04.311Z,29.15
2023-04-01T05:46:04.303Z,29.25
2023-04-01T05:47:04.245Z,29.31
2023-04-01T05:48:04.305Z,29.48
2023-04-01T05:49:04.251Z,29.58
2023-04-01T05:50:04.248Z,29.60
2023-04-01T05:51:04.220Z,29.62
2023-04-01T05:52:04.222Z,29.58
2023-04-01T05:53:04.168Z,29.79
2023-04-01T05:54:04.170Z,29.90
2023-04-01T05:55:04.122Z,30.07
2023-04-01T05:56:08.857Z,30.11
2023-04-01T05:57:04.156Z,30.29
2023-04-01T05:58:04.119Z,30.37
2023-04-01T05:59:04.102Z,30.42
2023-04-01T06:00:04.056Z,30.51
2023-04-01T06:01:10.295Z,30.60
2023-04-01T06:02:04.043Z,30.60
2023-04-01T06:03:04.159Z,30.68
2023-04-01T06:04:05.148Z,30.89
2023-04-01T06:05:04.086Z,30.80
2023-04-01T06:06:04.018Z,30.93
2023-04-01T06:07:03.999Z,30.93
2023-04-01T06:08:04.004Z,31.05
2023-04-01T06:09:03.987Z,31.23
2023-04-01T06:10:03.935Z,31.23
2023-04-01T06:11:03.904Z,31.16
2023-04-01T06:12:03.914Z,31.35
2023-04-01T06:13:03.885Z,31.33
2023-04-01T06:14:04.300Z,31.40
2023-04-01T06:15:03.871Z,31.64
2023-04-01T06:16:03.900Z,31.61
2023-04-01T06:17:03.834Z,31.75
2023-04-01T06:18:03.901Z,31.68
2023-04-01T06:19:03.819Z,31.64
2023-04-01T06:20:03.821Z,31.71
2023-04-01T06:21:03.786Z,31.83
2023-04-01T06:22:03.786Z,31.90
2023-04-01T06:23:03.757Z,31.90
2023-04-01T06:24:03.754Z,31.90
2023-04-01T06:25:03.761Z,32.05
2023-04-01T06:26:03.768Z,32.07
2023-04-01T06:27:03.757Z,32.07
2023-04-01T06:28:03.948Z,32.10
2023-04-01T06:29:03.696Z,32.00
2023-04-01T06:30:03.730Z,32.10
2023-04-01T06:31:03.705Z,32.24
2023-04-01T06:32:10.382Z,32.19
2023-04-01T06:33:03.651Z,32.19
2023-04-01T06:34:03.663Z,32.19
2023-04-01T06:35:03.623Z,32.19
2023-04-01T06:36:03.758Z,32.32
2023-04-01T06:37:03.632Z,32.37
2023-04-01T06:38:03.574Z,32.42
2023-04-01T06:39:03.570Z,32.32
2023-04-01T06:40:03.586Z,32.47
2023-04-01T06:41:03.555Z,32.34
2023-04-01T06:42:03.786Z,32.32
2023-04-01T06:43:03.571Z,32.47
2023-04-01T06:44:03.506Z,32.37
2023-04-01T06:45:03.450Z,32.22
2023-04-01T06:46:03.453Z,32.27
2023-04-01T06:47:03.445Z,32.27
2023-04-01T06:48:03.551Z,32.02
2023-04-01T06:49:03.585Z,32.14
2023-04-01T06:50:03.454Z,32.17
2023-04-01T06:51:03.393Z,32.05
2023-04-01T06:52:03.384Z,32.00
2023-04-01T06:53:03.358Z,32.02
2023-04-01T06:54:03.372Z,31.88
2023-04-01T06:55:03.341Z,31.83
2023-04-01T06:56:03.332Z,31.95
2023-04-01T06:57:03.339Z,31.83
2023-04-01T06:58:03.313Z,31.83
2023-04-01T06:59:03.333Z,31.78
2023-04-01T07:00:03.281Z,31.73
2023-04-01T07:01:03.322Z,31.66
2023-04-01T07:02:03.249Z,31.56
2023-04-01T07:03:05.488Z,31.47
2023-04-01T07:04:03.256Z,31.61
2023-04-01T07:05:03.232Z,31.37
2023-04-01T07:06:03.177Z,31.44
2023-04-01T07:07:03.178Z,31.54
2023-04-01T07:08:03.177Z,31.64
2023-04-01T07:09:05.114Z,31.44
2023-04-01T07:10:03.153Z,31.33
2023-04-01T07:11:03.149Z,31.40
2023-04-01T07:12:03.115Z,31.37
2023-04-01T07:13:03.106Z,31.26
2023-04-01T07:14:03.078Z,31.52
2023-04-01T07:15:03.082Z,31.28
2023-04-01T07:16:03.038Z,31.35
2023-04-01T07:17:03.038Z,31.26
2023-04-01T07:18:03.078Z,31.28
2023-04-01T07:19:03.115Z,31.14
2023-04-01T07:20:03.032Z,31.30
2023-04-01T07:21:02.984Z,31.21
2023-04-01T07:22:03.131Z,31.00
2023-04-01T07:23:02.960Z,31.19
2023-04-01T07:24:02.982Z,31.28
2023-04-01T07:25:02.918Z,31.19
2023-04-01T07:26:02.978Z,31.05
2023-04-01T07:27:02.895Z,31.19
2023-04-01T07:28:02.875Z,31.03
2023-04-01T07:29:02.950Z,31.12
2023-04-01T07:30:02.905Z,31.03
2023-04-01T07:31:02.916Z,31.07
2023-04-01T07:32:02.858Z,30.98
2023-04-01T07:33:02.912Z,30.87
2023-04-01T07:34:02.816Z,30.73
2023-04-01T07:35:02.853Z,30.68
2023-04-01T07:36:02.789Z,30.62
2023-04-01T07:37:02.784Z,30.55
2023-04-01T07:38:02.769Z,30.49
2023-04-01T07:39:02.777Z,30.53
2023-04-01T07:40:02.760Z,30.37
2023-04-01T07:41:02.738Z,30.35
2023-04-01T07:42:02.697Z,30.31
2023-04-01T07:43:02.678Z,30.22
2023-04-01T07:44:02.710Z,30.16
2023-04-01T07:45:02.705Z,29.98
2023-04-01T07:46:02.693Z,29.83
2023-04-01T07:47:02.632Z,29.69
2023-04-01T07:48:02.716Z,29.67
2023-04-01T07:49:02.614Z,29.58
2023-04-01T07:50:02.580Z,29.44
2023-04-01T07:51:02.594Z,29.31
2023-04-01T07:52:02.551Z,29.19
2023-04-01T07:53:02.570Z,29.07
2023-04-01T07:54:02.532Z,29.01
2023-04-01T07:55:02.548Z,28.87
2023-04-01T07:56:02.503Z,29.05
2023-04-01T07:57:02.544Z,29.09
2023-04-01T07:58:02.482Z,29.07
2023-04-01T07:59:02.461Z,28.87
2023-04-01T08:00:02.465Z,28.89
2023-04-01T08:01:02.439Z,29.56
2023-04-01T08:02:02.443Z,29.98
2023-04-01T08:03:02.519Z,30.64
2023-04-01T08:04:02.516Z,30.87
2023-04-01T08:05:02.442Z,30.96
2023-04-01T08:06:02.444Z,31.47
2023-04-01T08:07:02.377Z,31.68
2023-04-01T08:08:02.338Z,31.78
2023-04-01T08:09:02.332Z,31.75
2023-04-01T08:10:02.330Z,31.68
2023-04-01T08:11:02.332Z,31.83
2023-04-01T08:12:02.296Z,31.90
2023-04-01T08:13:02.321Z,31.97
2023-04-01T08:14:02.263Z,32.12
2023-04-01T08:15:02.248Z,31.83
2023-04-01T08:16:02.272Z,31.78
2023-04-01T08:17:02.233Z,31.88
2023-04-01T08:18:02.261Z,31.83
2023-04-01T08:19:02.213Z,31.52
2023-04-01T08:20:02.222Z,31.49
2023-04-01T08:21:02.176Z,31.52
2023-04-01T08:22:02.188Z,31.33
2023-04-01T08:23:02.141Z,31.49
2023-04-01T08:24:02.138Z,31.75
2023-04-01T08:25:02.131Z,31.85
2023-04-01T08:26:02.105Z,32.05
2023-04-01T08:27:02.101Z,32.17
2023-04-01T08:28:02.085Z,32.00
2023-04-01T08:29:02.063Z,31.95
2023-04-01T08:30:02.114Z,31.92
2023-04-01T08:31:02.089Z,31.54
2023-04-01T08:32:02.045Z,31.42
2023-04-01T08:33:02.149Z,31.07
2023-04-01T08:34:02.032Z,31.12
2023-04-01T08:35:02.064Z,31.05
2023-04-01T08:36:02.045Z,30.89
2023-04-01T08:37:02.010Z,30.87
2023-04-01T08:38:02.019Z,30.93
2023-04-01T08:39:02.064Z,30.84
2023-04-01T08:40:02.017Z,30.89
2023-04-01T08:41:01.917Z,30.87
2023-04-01T08:42:01.906Z,30.96
2023-04-01T08:43:01.884Z,31.00
2023-04-01T08:44:01.894Z,31.05
2023-04-01T08:45:01.860Z,30.96
2023-04-01T08:46:01.880Z,30.82
2023-04-01T08:47:01.857Z,30.82
2023-04-01T08:48:01.967Z,30.75
2023-04-01T08:49:01.817Z,30.82
2023-04-01T08:50:01.860Z,30.68
2023-04-01T08:51:01.820Z,30.82
2023-04-01T08:52:01.897Z,30.91
2023-04-01T08:53:01.778Z,31.03
2023-04-01T08:54:01.733Z,31.05
2023-04-01T08:55:01.751Z,31.30
2023-04-01T08:56:01.761Z,31.23
2023-04-01T08:57:01.811Z,31.42
2023-04-01T08:58:01.718Z,31.44
2023-04-01T08:59:01.760Z,31.66
2023-04-01T09:00:01.707Z,31.61
2023-04-01T09:01:01.692Z,31.64
2023-04-01T09:02:01.706Z,31.61
2023-04-01T09:03:01.814Z,31.71
2023-04-01T09:04:01.723Z,31.68
2023-04-01T09:05:01.650Z,31.73
2023-04-01T09:06:01.703Z,31.47
2023-04-01T09:07:01.684Z,31.26
2023-04-01T09:08:01.572Z,31.09
2023-04-01T09:09:01.670Z,30.93
2023-04-01T09:10:01.556Z,30.73
2023-04-01T09:11:01.608Z,30.51
2023-04-01T09:12:01.601Z,30.20
2023-04-01T09:13:01.635Z,30.03
2023-04-01T09:14:01.579Z,29.67
2023-04-01T09:15:01.471Z,29.52
2023-04-01T09:16:01.501Z,29.37
2023-04-01T09:17:01.423Z,29.13
2023-04-01T09:18:01.441Z,28.93
2023-04-01T09:19:01.440Z,28.75
2023-04-01T09:20:01.394Z,28.53
2023-04-01T09:21:01.360Z,28.48
2023-04-01T09:22:01.389Z,28.34
2023-04-01T09:23:01.367Z,28.19
2023-04-01T09:24:01.346Z,28.23
2023-04-01T09:25:01.361Z,27.94
2023-04-01T09:26:01.390Z,27.94
2023-04-01T09:27:01.282Z,27.96
2023-04-01T09:28:01.299Z,27.89
2023-04-01T09:29:01.291Z,27.69
2023-04-01T09:30:01.349Z,27.59
2023-04-01T09:31:01.285Z,27.59
2023-04-01T09:32:01.274Z,27.63
2023-04-01T09:33:01.629Z,27.52
2023-04-01T09:34:01.223Z,27.34
2023-04-01T09:35:01.243Z,27.40
2023-04-01T09:36:01.236Z,27.24
2023-04-01T09:37:01.199Z,27.17
2023-04-01T09:38:01.202Z,27.06
2023-04-01T09:39:01.180Z,27.06
2023-04-01T09:40:01.135Z,26.99
2023-04-01T09:41:01.148Z,26.99
2023-04-01T09:42:01.101Z,26.92
2023-04-01T09:43:01.170Z,27.08
2023-04-01T09:44:01.136Z,27.04
2023-04-01T09:45:01.190Z,27.11
2023-04-01T09:46:01.127Z,27.17
2023-04-01T09:47:01.074Z,27.01
2023-04-01T09:48:01.109Z,27.15
2023-04-01T09:49:01.095Z,27.04
2023-04-01T09:50:01.074Z,27.11
2023-04-01T09:51:01.065Z,26.89
2023-04-01T09:52:01.042Z,27.01
2023-04-01T09:53:01.059Z,26.89
2023-04-01T09:54:01.031Z,26.78
2023-04-01T09:55:01.018Z,26.82
2023-04-01T09:56:00.921Z,26.87
2023-04-01T09:57:01.034Z,26.85
2023-04-01T09:58:00.933Z,26.87
2023-04-01T09:59:00.965Z,26.87
2023-04-01T10:00:00.937Z,26.87
2023-04-01T10:01:00.847Z,26.82
2023-04-01T10:02:00.913Z,26.87
2023-04-01T10:03:00.974Z,26.72
2023-04-01T10:04:00.813Z,26.85
2023-04-01T10:05:00.799Z,26.85
2023-04-01T10:06:00.784Z,26.68
2023-04-01T10:07:00.852Z,26.68
2023-04-01T10:08:00.781Z,26.68
2023-04-01T10:09:00.792Z,26.70
2023-04-01T10:10:00.748Z,26.68
2023-04-01T10:11:00.711Z,26.60
2023-04-01T10:12:00.718Z,26.61
2023-04-01T10:13:00.741Z,26.41
2023-04-01T10:14:00.780Z,26.45
2023-04-01T10:15:00.830Z,26.50
2023-04-01T10:16:00.722Z,26.51
2023-04-01T10:17:00.640Z,26.55
2023-04-01T10:18:00.749Z,26.43
2023-04-01T10:19:00.757Z,26.46
2023-04-01T10:20:00.665Z,26.26
2023-04-01T10:21:00.770Z,26.40
2023-04-01T10:22:00.644Z,26.35
2023-04-01T10:23:00.600Z,26.35
2023-04-01T10:24:00.650Z,26.28
2023-04-01T10:25:00.551Z,26.33
2023-04-01T10:26:00.801Z,26.28
2023-04-01T10:27:00.649Z,26.31
2023-04-01T10:28:00.775Z,26.17
2023-04-01T10:29:00.619Z,26.17
2023-04-01T10:30:00.587Z,26.17
2023-04-01T10:31:00.470Z,26.15
2023-04-01T10:32:00.627Z,26.07
2023-04-01T10:33:00.453Z,26.00
2023-04-01T10:34:00.414Z,25.99
2023-04-01T10:35:00.458Z,25.94
2023-04-01T10:36:00.586Z,25.87
2023-04-01T10:37:00.411Z,25.84
2023-04-01T10:38:00.343Z,25.92
2023-04-01T10:39:00.394Z,25.80
2023-04-01T10:40:00.338Z,25.81
2023-04-01T10:41:00.397Z,25.84
2023-04-01T10:42:00.370Z,25.87
2023-04-01T10:43:00.309Z,25.87
2023-04-01T10:44:00.261Z,25.97
2023-04-01T10:45:00.311Z,26.00
2023-04-01T10:46:00.374Z,26.02
2023-04-01T10:47:00.277Z,25.97
2023-04-01T10:48:00.338Z,25.94
2023-04-01T10:49:00.200Z,26.02
2023-04-01T10:50:00.228Z,26.08
2023-04-01T10:51:00.212Z,26.17
2023-04-01T10:52:00.155Z,26.20
2023-04-01T10:53:00.190Z,26.30
2023-04-01T10:54:00.148Z,26.43
2023-04-01T10:55:00.161Z,26.45
2023-04-01T10:56:00.167Z,26.51
2023-04-01T10:57:00.197Z,26.53
2023-04-01T10:58:00.079Z,26.58
2023-04-01T10:59:00.118Z,26.66
2023-04-01T11:00:00.132Z,26.77
2023-04-01T11:01:00.076Z,26.87
2023-04-01T11:02:09.966Z,26.97
2023-04-01T11:03:00.116Z,27.09
2023-04-01T11:04:00.028Z,27.17
2023-04-01T11:04:59.995Z,27.22
2023-04-01T11:05:59.989Z,27.29
2023-04-01T11:06:59.953Z,27.33
2023-04-01T11:08:06.111Z,27.22
2023-04-01T11:08:59.930Z,27.33
2023-04-01T11:09:59.928Z,27.27
2023-04-01T11:10:59.930Z,27.25
2023-04-01T11:11:59.919Z,27.25
2023-04-01T11:12:59.954Z,27.27
2023-04-01T11:13:59.876Z,27.25
2023-04-01T11:14:59.887Z,27.22
2023-04-01T11:15:59.858Z,27.22
2023-04-01T11:16:59.857Z,27.18
2023-04-01T11:17:59.873Z,27.20
2023-04-01T11:18:59.788Z,27.25
2023-04-01T11:19:59.761Z,27.33
2023-04-01T11:20:59.766Z,27.38
2023-04-01T11:21:59.759Z,27.36
2023-04-01T11:22:59.741Z,27.41
2023-04-01T11:24:04.902Z,27.49
2023-04-01T11:24:59.734Z,27.56
2023-04-01T11:25:59.736Z,27.58
2023-04-01T11:26:59.744Z,27.72
2023-04-01T11:27:59.679Z,27.76
2023-04-01T11:28:59.697Z,27.80
2023-04-01T11:30:00.761Z,27.81
2023-04-01T11:30:59.644Z,27.98
2023-04-01T11:31:59.621Z,28.09
2023-04-01T11:32:59.673Z,28.28
2023-04-01T11:33:59.595Z,28.30
2023-04-01T11:34:59.566Z,28.32
2023-04-01T11:35:59.552Z,28.40
2023-04-01T11:36:59.567Z,28.61
2023-04-01T11:37:59.533Z,28.61
2023-04-01T11:38:59.510Z,28.89
2023-04-01T11:39:59.557Z,29.11
2023-04-01T11:40:59.517Z,29.31
2023-04-01T11:41:59.491Z,29.50
2023-04-01T11:42:59.498Z,29.62
2023-04-01T11:43:59.466Z,29.94
2023-04-01T11:44:59.488Z,29.92
2023-04-01T11:45:59.516Z,30.22
2023-04-01T11:46:59.425Z,30.49
2023-04-01T11:47:59.506Z,30.57
2023-04-01T11:48:59.440Z,30.78
2023-04-01T11:49:59.413Z,30.75
2023-04-01T11:50:59.490Z,31.00
2023-04-01T11:51:59.370Z,31.12
2023-04-01T11:52:59.354Z,31.37
2023-04-01T11:53:59.334Z,31.30
2023-04-01T11:54:59.336Z,31.42
2023-04-01T11:55:59.289Z,31.49
2023-04-01T11:56:59.379Z,31.42
2023-04-01T11:57:59.266Z,31.47
2023-04-01T11:58:59.264Z,31.59
2023-04-01T11:59:59.265Z,31.71
2023-04-01T12:00:59.351Z,31.71
2023-04-01T12:01:59.262Z,31.85
2023-04-01T12:02:59.369Z,31.83
2023-04-01T12:03:59.325Z,31.88
2023-04-01T12:04:59.272Z,31.90
2023-04-01T12:05:59.245Z,31.78
2023-04-01T12:06:59.202Z,31.88
2023-04-01T12:07:59.233Z,31.85
2023-04-01T12:08:59.129Z,31.92
2023-04-01T12:09:59.157Z,32.10
2023-04-01T12:10:59.110Z,32.17
2023-04-01T12:11:59.097Z,32.34
2023-04-01T12:13:01.723Z,32.47
2023-04-01T12:13:59.108Z,32.67
2023-04-01T12:14:59.038Z,32.82
2023-04-01T12:15:59.026Z,33.03
2023-04-01T12:16:59.025Z,33.19
2023-04-01T12:17:59.017Z,33.64
2023-04-01T12:18:58.972Z,33.75
2023-04-01T12:19:59.012Z,33.99
2023-04-01T12:20:58.968Z,34.19
2023-04-01T12:21:58.948Z,34.30
2023-04-01T12:22:58.938Z,34.30
2023-04-01T12:23:58.935Z,34.44
2023-04-01T12:24:58.883Z,34.36
2023-04-01T12:25:58.907Z,34.44
2023-04-01T12:26:58.902Z,34.36
2023-04-01T12:27:58.889Z,34.58
2023-04-01T12:28:58.852Z,34.61
2023-04-01T12:29:58.865Z,34.70
2023-04-01T12:30:58.822Z,34.93
2023-04-01T12:31:58.892Z,35.08
2023-04-01T12:32:58.886Z,34.99
2023-04-01T12:33:58.780Z,35.11
2023-04-01T12:34:58.859Z,35.19
2023-04-01T12:35:58.860Z,35.40
2023-04-01T12:36:58.782Z,35.34
2023-04-01T12:37:58.725Z,35.40
2023-04-01T12:38:58.727Z,35.34
2023-04-01T12:39:58.734Z,35.13
2023-04-01T12:40:58.696Z,35.31
2023-04-01T12:41:58.703Z,35.40
2023-04-01T12:42:58.695Z,35.46
2023-04-01T12:43:58.659Z,35.52
2023-04-01T12:44:58.677Z,35.28
2023-04-01T12:45:58.724Z,35.64
2023-04-01T12:46:58.667Z,35.76
2023-04-01T12:47:58.653Z,35.79
2023-04-01T12:48:58.584Z,35.79
2023-04-01T12:49:58.588Z,35.76
2023-04-01T12:50:58.547Z,35.64
2023-04-01T12:51:58.541Z,35.49